sensor_id;sensor_type;location;lat;lon;timestamp;temperature;humidity
39875;DHT22;25547;52.530;13.194;2022-12-18T00:01:27;-4.40;99.90
39875;DHT22;25547;52.530;13.194;2022-12-18T00:03:57;-4.40;99.90
39875;DHT22;25547;52.530;13.194;2022-12-18T00:06:27;-4.40;99.90
39875;DHT22;25547;52.530;13.194;2022-12-18T00:08:54;-4.40;99.90
39875;DHT22;25547;52.530;13.194;2022-12-18T00:11:22;-4.50;99.90
39875;DHT22;25547;52.530;13.194;2022-12-18T00:13:49;-4.40;99.90
39875;DHT22;25547;52.530;13.194;2022-12-18T00:16:19;-4.30;99.90
39875;DHT22;25547;52.530;13.194;2022-12-18T00:18:50;-4.40;99.90
39875;DHT22;25547;52.530;13.194;2022-12-18T00:21:19;-4.60;99.90
39875;DHT22;25547;52.530;13.194;2022-12-18T00:23:46;-4.60;99.90
39875;DHT22;25547;52.530;13.194;2022-12-18T00:28:43;-4.50;99.90
39875;DHT22;25547;52.530;13.194;2022-12-18T00:31:12;-4.40;99.90
39875;DHT22;25547;52.530;13.194;2022-12-18T00:33:38;-4.40;99.90
39875;DHT22;25547;52.530;13.194;2022-12-18T00:36:10;-4.40;99.90
39875;DHT22;25547;52.530;13.194;2022-12-18T00:38:39;-4.40;99.90
39875;DHT22;25547;52.530;13.194;2022-12-18T00:41:10;-4.30;99.90
39875;DHT22;25547;52.530;13.194;2022-12-18T00:43:41;-4.20;99.90
39875;DHT22;25547;52.530;13.194;2022-12-18T00:46:09;-4.50;99.90
39875;DHT22;25547;52.530;13.194;2022-12-18T00:48:35;-4.90;99.90
39875;DHT22;25547;52.530;13.194;2022-12-18T00:51:00;-5.00;99.90
39875;DHT22;25547;52.530;13.194;2022-12-18T00:53:28;-5.20;99.90
39875;DHT22;25547;52.530;13.194;2022-12-18T00:55:54;-5.30;99.90
39875;DHT22;25547;52.530;13.194;2022-12-18T00:58:20;-5.20;99.90
39875;DHT22;25547;52.530;13.194;2022-12-18T01:00:46;-5.20;99.90
39875;DHT22;25547;52.530;13.194;2022-12-18T01:03:13;-5.20;99.90
39875;DHT22;25547;52.530;13.194;2022-12-18T01:05:40;-5.20;99.90
39875;DHT22;25547;52.530;13.194;2022-12-18T01:08:06;-5.20;99.90
39875;DHT22;25547;52.530;13.194;2022-12-18T01:10:32;-5.20;99.90
39875;DHT22;25547;52.530;13.194;2022-12-18T01:12:58;-5.20;99.90
39875;DHT22;25547;52.530;13.194;2022-12-18T01:15:26;-5.20;99.90
39875;DHT22;25547;52.530;13.194;2022-12-18T01:17:52;-5.10;99.90
39875;DHT22;25547;52.530;13.194;2022-12-18T01:20:18;-5.10;99.90
39875;DHT22;25547;52.530;13.194;2022-12-18T01:22:46;-5.20;99.90
39875;DHT22;25547;52.530;13.194;2022-12-18T01:25:12;-5.20;99.90
39875;DHT22;25547;52.530;13.194;2022-12-18T01:27:38;-5.30;99.90
39875;DHT22;25547;52.530;13.194;2022-12-18T01:30:07;-5.40;99.90
39875;DHT22;25547;52.530;13.194;2022-12-18T01:32:33;-5.30;99.90
39875;DHT22;25547;52.530;13.194;2022-12-18T01:34:58;-5.40;99.90
39875;DHT22;25547;52.530;13.194;2022-12-18T01:37:24;-5.40;99.90
39875;DHT22;25547;52.530;13.194;2022-12-18T01:39:52;-5.10;99.90
39875;DHT22;25547;52.530;13.194;2022-12-18T01:42:19;-5.00;99.90
39875;DHT22;25547;52.530;13.194;2022-12-18T01:47:46;-4.80;99.90
39875;DHT22;25547;52.530;13.194;2022-12-18T01:50:30;-4.70;99.90
39875;DHT22;25547;52.530;13.194;2022-12-18T01:53:03;-4.80;99.90
39875;DHT22;25547;52.530;13.194;2022-12-18T01:55:35;-4.80;99.90
39875;DHT22;25547;52.530;13.194;2022-12-18T01:58:02;-4.70;99.90
39875;DHT22;25547;52.530;13.194;2022-12-18T02:00:31;-4.80;99.90
39875;DHT22;25547;52.530;13.194;2022-12-18T02:02:57;-4.80;99.90
39875;DHT22;25547;52.530;13.194;2022-12-18T02:08:34;-5.00;99.90
39875;DHT22;25547;52.530;13.194;2022-12-18T02:13:50;-4.80;99.90
39875;DHT22;25547;52.530;13.194;2022-12-18T02:22:23;-5.00;99.90
39875;DHT22;25547;52.530;13.194;2022-12-18T02:27:16;-4.60;99.90
39875;DHT22;25547;52.530;13.194;2022-12-18T02:29:50;-4.40;99.90
39875;DHT22;25547;52.530;13.194;2022-12-18T02:32:24;-4.40;99.90
39875;DHT22;25547;52.530;13.194;2022-12-18T02:34:51;-4.60;99.90
39875;DHT22;25547;52.530;13.194;2022-12-18T02:37:18;-4.70;99.90
39875;DHT22;25547;52.530;13.194;2022-12-18T02:39:47;-4.80;99.90
39875;DHT22;25547;52.530;13.194;2022-12-18T02:42:14;-5.00;99.90
39875;DHT22;25547;52.530;13.194;2022-12-18T02:44:46;-4.90;99.90
39875;DHT22;25547;52.530;13.194;2022-12-18T02:47:14;-4.90;99.90
39875;DHT22;25547;52.530;13.194;2022-12-18T02:52:32;-5.10;99.90
39875;DHT22;25547;52.530;13.194;2022-12-18T02:58:26;-5.10;99.90
39875;DHT22;25547;52.530;13.194;2022-12-18T03:03:57;-4.90;99.90
39875;DHT22;25547;52.530;13.194;2022-12-18T03:06:42;-4.80;99.90
39875;DHT22;25547;52.530;13.194;2022-12-18T03:09:12;-5.20;99.90
39875;DHT22;25547;52.530;13.194;2022-12-18T03:11:42;-5.40;99.90
39875;DHT22;25547;52.530;13.194;2022-12-18T03:14:30;-5.50;99.90
39875;DHT22;25547;52.530;13.194;2022-12-18T03:17:03;-5.60;99.90
39875;DHT22;25547;52.530;13.194;2022-12-18T03:19:32;-5.50;99.90
39875;DHT22;25547;52.530;13.194;2022-12-18T03:22:03;-5.50;99.90
39875;DHT22;25547;52.530;13.194;2022-12-18T03:24:29;-5.40;99.90
39875;DHT22;25547;52.530;13.194;2022-12-18T03:27:09;-5.50;99.90
39875;DHT22;25547;52.530;13.194;2022-12-18T03:29:42;-5.50;99.90
39875;DHT22;25547;52.530;13.194;2022-12-18T03:32:11;-5.40;99.90
39875;DHT22;25547;52.530;13.194;2022-12-18T03:34:42;-5.20;99.90
39875;DHT22;25547;52.530;13.194;2022-12-18T03:37:11;-5.10;99.90
39875;DHT22;25547;52.530;13.194;2022-12-18T03:39:37;-5.10;99.90
39875;DHT22;25547;52.530;13.194;2022-12-18T03:45:19;-5.10;99.90
39875;DHT22;25547;52.530;13.194;2022-12-18T03:50:59;-5.30;99.90
39875;DHT22;25547;52.530;13.194;2022-12-18T03:53:52;-5.30;99.90
39875;DHT22;25547;52.530;13.194;2022-12-18T03:56:21;-5.40;99.90
39875;DHT22;25547;52.530;13.194;2022-12-18T03:58:50;-5.30;99.90
39875;DHT22;25547;52.530;13.194;2022-12-18T04:01:17;-5.40;99.90
39875;DHT22;25547;52.530;13.194;2022-12-18T04:03:46;-5.30;99.90
39875;DHT22;25547;52.530;13.194;2022-12-18T04:06:15;-5.40;99.90
39875;DHT22;25547;52.530;13.194;2022-12-18T04:08:42;-5.40;99.90
39875;DHT22;25547;52.530;13.194;2022-12-18T04:11:13;-5.40;99.90
39875;DHT22;25547;52.530;13.194;2022-12-18T04:13:42;-5.30;99.90
39875;DHT22;25547;52.530;13.194;2022-12-18T04:16:09;-5.40;99.90
39875;DHT22;25547;52.530;13.194;2022-12-18T04:18:38;-5.50;99.90
39875;DHT22;25547;52.530;13.194;2022-12-18T04:21:03;-5.50;99.90
39875;DHT22;25547;52.530;13.194;2022-12-18T04:23:31;-5.50;99.90
39875;DHT22;25547;52.530;13.194;2022-12-18T04:25:57;-5.40;99.90
39875;DHT22;25547;52.530;13.194;2022-12-18T04:28:23;-5.30;99.90
39875;DHT22;25547;52.530;13.194;2022-12-18T04:30:51;-5.20;99.90
39875;DHT22;25547;52.530;13.194;2022-12-18T04:33:17;-5.10;99.90
39875;DHT22;25547;52.530;13.194;2022-12-18T04:35:43;-5.00;99.90
39875;DHT22;25547;52.530;13.194;2022-12-18T04:38:12;-5.00;99.90
39875;DHT22;25547;52.530;13.194;2022-12-18T04:40:40;-5.30;99.90
39875;DHT22;25547;52.530;13.194;2022-12-18T04:43:06;-5.20;99.90
39875;DHT22;25547;52.530;13.194;2022-12-18T04:45:35;-5.20;99.90
39875;DHT22;25547;52.530;13.194;2022-12-18T04:48:02;-5.30;99.90
39875;DHT22;25547;52.530;13.194;2022-12-18T04:50:30;-5.30;99.90
39875;DHT22;25547;52.530;13.194;2022-12-18T04:52:57;-5.30;99.90
39875;DHT22;25547;52.530;13.194;2022-12-18T04:55:23;-5.20;99.90
39875;DHT22;25547;52.530;13.194;2022-12-18T04:57:53;-5.20;99.90
39875;DHT22;25547;52.530;13.194;2022-12-18T05:00:19;-5.20;99.90
39875;DHT22;25547;52.530;13.194;2022-12-18T05:02:45;-5.10;99.90
39875;DHT22;25547;52.530;13.194;2022-12-18T05:05:13;-5.10;99.90
39875;DHT22;25547;52.530;13.194;2022-12-18T05:07:39;-5.00;99.90
39875;DHT22;25547;52.530;13.194;2022-12-18T05:10:05;-5.00;99.90
39875;DHT22;25547;52.530;13.194;2022-12-18T05:12:33;-4.80;99.90
39875;DHT22;25547;52.530;13.194;2022-12-18T05:14:59;-4.80;99.90
39875;DHT22;25547;52.530;13.194;2022-12-18T05:17:25;-5.00;99.90
39875;DHT22;25547;52.530;13.194;2022-12-18T05:19:50;-5.20;99.90
39875;DHT22;25547;52.530;13.194;2022-12-18T05:22:16;-5.20;99.90
39875;DHT22;25547;52.530;13.194;2022-12-18T05:24:44;-5.20;99.90
39875;DHT22;25547;52.530;13.194;2022-12-18T05:27:10;-5.10;99.90
39875;DHT22;25547;52.530;13.194;2022-12-18T05:29:38;-4.80;99.90
39875;DHT22;25547;52.530;13.194;2022-12-18T05:32:04;-4.90;99.90
39875;DHT22;25547;52.530;13.194;2022-12-18T05:34:32;-4.90;99.90
39875;DHT22;25547;52.530;13.194;2022-12-18T05:36:58;-4.90;99.90
39875;DHT22;25547;52.530;13.194;2022-12-18T05:39:24;-4.90;99.90
39875;DHT22;25547;52.530;13.194;2022-12-18T05:41:50;-5.00;99.90
39875;DHT22;25547;52.530;13.194;2022-12-18T05:44:16;-5.10;99.90
39875;DHT22;25547;52.530;13.194;2022-12-18T05:46:42;-5.30;99.90
39875;DHT22;25547;52.530;13.194;2022-12-18T05:49:10;-5.40;99.90
39875;DHT22;25547;52.530;13.194;2022-12-18T05:51:36;-5.30;99.90
39875;DHT22;25547;52.530;13.194;2022-12-18T05:54:01;-5.30;99.90
39875;DHT22;25547;52.530;13.194;2022-12-18T05:56:27;-5.40;99.90
39875;DHT22;25547;52.530;13.194;2022-12-18T05:58:54;-5.50;99.90
39875;DHT22;25547;52.530;13.194;2022-12-18T06:01:24;-5.60;99.90
39875;DHT22;25547;52.530;13.194;2022-12-18T06:03:50;-5.50;99.90
39875;DHT22;25547;52.530;13.194;2022-12-18T06:06:22;-5.40;99.90
39875;DHT22;25547;52.530;13.194;2022-12-18T06:08:51;-5.50;99.90
39875;DHT22;25547;52.530;13.194;2022-12-18T06:11:20;-5.50;99.90
39875;DHT22;25547;52.530;13.194;2022-12-18T06:13:46;-5.50;99.90
39875;DHT22;25547;52.530;13.194;2022-12-18T06:16:17;-5.50;99.90
39875;DHT22;25547;52.530;13.194;2022-12-18T06:18:42;-5.40;99.90
39875;DHT22;25547;52.530;13.194;2022-12-18T06:21:11;-5.40;99.90
39875;DHT22;25547;52.530;13.194;2022-12-18T06:23:37;-5.40;99.90
39875;DHT22;25547;52.530;13.194;2022-12-18T06:26:08;-5.40;99.90
39875;DHT22;25547;52.530;13.194;2022-12-18T06:28:34;-5.60;99.90
39875;DHT22;25547;52.530;13.194;2022-12-18T06:31:02;-5.60;99.90
39875;DHT22;25547;52.530;13.194;2022-12-18T06:33:27;-5.50;99.90
39875;DHT22;25547;52.530;13.194;2022-12-18T06:35:54;-5.60;99.90
39875;DHT22;25547;52.530;13.194;2022-12-18T06:38:20;-5.80;99.90
39875;DHT22;25547;52.530;13.194;2022-12-18T06:40:45;-5.80;99.90
39875;DHT22;25547;52.530;13.194;2022-12-18T06:43:11;-5.80;99.90
39875;DHT22;25547;52.530;13.194;2022-12-18T06:45:37;-5.70;99.90
39875;DHT22;25547;52.530;13.194;2022-12-18T06:48:03;-5.80;99.90
39875;DHT22;25547;52.530;13.194;2022-12-18T06:50:29;-5.60;99.90
39875;DHT22;25547;52.530;13.194;2022-12-18T06:52:54;-5.80;99.90
39875;DHT22;25547;52.530;13.194;2022-12-18T06:55:20;-5.70;99.90
39875;DHT22;25547;52.530;13.194;2022-12-18T06:57:48;-5.60;99.90
39875;DHT22;25547;52.530;13.194;2022-12-18T07:00:14;-5.50;99.90
39875;DHT22;25547;52.530;13.194;2022-12-18T07:02:40;-5.50;99.90
39875;DHT22;25547;52.530;13.194;2022-12-18T07:05:06;-5.40;99.90
39875;DHT22;25547;52.530;13.194;2022-12-18T07:07:35;-5.30;99.90
39875;DHT22;25547;52.530;13.194;2022-12-18T07:10:01;-5.20;99.90
39875;DHT22;25547;52.530;13.194;2022-12-18T07:12:27;-5.50;99.90
39875;DHT22;25547;52.530;13.194;2022-12-18T07:14:53;-5.50;99.90
39875;DHT22;25547;52.530;13.194;2022-12-18T07:17:18;-5.40;99.90
39875;DHT22;25547;52.530;13.194;2022-12-18T07:19:44;-5.50;99.90
39875;DHT22;25547;52.530;13.194;2022-12-18T07:22:12;-5.60;99.90
39875;DHT22;25547;52.530;13.194;2022-12-18T07:24:38;-5.50;99.90
39875;DHT22;25547;52.530;13.194;2022-12-18T07:27:08;-5.40;99.90
39875;DHT22;25547;52.530;13.194;2022-12-18T07:29:34;-5.30;99.90
39875;DHT22;25547;52.530;13.194;2022-12-18T07:32:00;-5.50;99.90
39875;DHT22;25547;52.530;13.194;2022-12-18T07:34:26;-5.50;99.90
39875;DHT22;25547;52.530;13.194;2022-12-18T07:36:54;-5.50;99.90
39875;DHT22;25547;52.530;13.194;2022-12-18T07:39:22;-5.50;99.90
39875;DHT22;25547;52.530;13.194;2022-12-18T07:41:48;-5.40;99.90
39875;DHT22;25547;52.530;13.194;2022-12-18T07:44:36;-5.40;99.90
39875;DHT22;25547;52.530;13.194;2022-12-18T07:47:04;-5.50;99.90
39875;DHT22;25547;52.530;13.194;2022-12-18T07:49:30;-5.60;99.90
39875;DHT22;25547;52.530;13.194;2022-12-18T07:51:56;-5.60;99.90
39875;DHT22;25547;52.530;13.194;2022-12-18T07:54:23;-5.50;99.90
39875;DHT22;25547;52.530;13.194;2022-12-18T07:56:51;-5.40;99.90
39875;DHT22;25547;52.530;13.194;2022-12-18T07:59:18;-5.30;99.90
39875;DHT22;25547;52.530;13.194;2022-12-18T08:01:44;-5.40;99.90
39875;DHT22;25547;52.530;13.194;2022-12-18T08:04:10;-5.30;99.90
39875;DHT22;25547;52.530;13.194;2022-12-18T08:06:39;-5.10;99.90
39875;DHT22;25547;52.530;13.194;2022-12-18T08:09:04;-5.20;99.90
39875;DHT22;25547;52.530;13.194;2022-12-18T08:11:33;-5.10;99.90
39875;DHT22;25547;52.530;13.194;2022-12-18T08:13:59;-4.90;99.90
39875;DHT22;25547;52.530;13.194;2022-12-18T08:16:27;-4.90;99.90
39875;DHT22;25547;52.530;13.194;2022-12-18T08:18:53;-4.70;99.90
39875;DHT22;25547;52.530;13.194;2022-12-18T08:21:22;-5.10;99.90
39875;DHT22;25547;52.530;13.194;2022-12-18T08:23:49;-5.10;99.90
39875;DHT22;25547;52.530;13.194;2022-12-18T08:26:18;-5.20;99.90
39875;DHT22;25547;52.530;13.194;2022-12-18T08:28:46;-5.30;99.90
39875;DHT22;25547;52.530;13.194;2022-12-18T08:31:12;-5.30;99.90
39875;DHT22;25547;52.530;13.194;2022-12-18T08:33:40;-5.10;99.90
39875;DHT22;25547;52.530;13.194;2022-12-18T08:36:08;-5.10;99.90
39875;DHT22;25547;52.530;13.194;2022-12-18T08:38:35;-5.40;99.90
39875;DHT22;25547;52.530;13.194;2022-12-18T08:41:07;-5.30;99.90
39875;DHT22;25547;52.530;13.194;2022-12-18T08:43:33;-5.20;99.90
39875;DHT22;25547;52.530;13.194;2022-12-18T08:46:18;-5.20;99.90
39875;DHT22;25547;52.530;13.194;2022-12-18T08:48:49;-5.10;99.90
39875;DHT22;25547;52.530;13.194;2022-12-18T08:51:19;-5.10;99.90
39875;DHT22;25547;52.530;13.194;2022-12-18T08:53:49;-5.20;99.90
39875;DHT22;25547;52.530;13.194;2022-12-18T08:56:16;-5.00;99.90
39875;DHT22;25547;52.530;13.194;2022-12-18T08:58:42;-4.90;99.90
39875;DHT22;25547;52.530;13.194;2022-12-18T09:01:12;-4.80;99.90
39875;DHT22;25547;52.530;13.194;2022-12-18T09:03:38;-4.90;99.90
39875;DHT22;25547;52.530;13.194;2022-12-18T09:06:05;-4.80;99.90
39875;DHT22;25547;52.530;13.194;2022-12-18T09:08:31;-4.80;99.90
39875;DHT22;25547;52.530;13.194;2022-12-18T09:10:59;-4.60;99.90
39875;DHT22;25547;52.530;13.194;2022-12-18T09:13:28;-4.50;99.90
39875;DHT22;25547;52.530;13.194;2022-12-18T09:15:54;-4.60;99.90
39875;DHT22;25547;52.530;13.194;2022-12-18T09:18:22;-4.40;99.90
39875;DHT22;25547;52.530;13.194;2022-12-18T09:20:48;-4.30;99.90
39875;DHT22;25547;52.530;13.194;2022-12-18T09:23:15;-4.60;99.90
39875;DHT22;25547;52.530;13.194;2022-12-18T09:25:44;-4.70;99.90
39875;DHT22;25547;52.530;13.194;2022-12-18T09:28:15;-4.70;99.90
39875;DHT22;25547;52.530;13.194;2022-12-18T09:30:45;-4.50;99.90
39875;DHT22;25547;52.530;13.194;2022-12-18T09:33:13;-4.40;99.90
39875;DHT22;25547;52.530;13.194;2022-12-18T09:35:41;-4.50;99.90
39875;DHT22;25547;52.530;13.194;2022-12-18T09:38:12;-4.60;99.90
39875;DHT22;25547;52.530;13.194;2022-12-18T09:40:50;-4.70;99.90
39875;DHT22;25547;52.530;13.194;2022-12-18T09:43:24;-4.70;99.90
39875;DHT22;25547;52.530;13.194;2022-12-18T09:45:57;-4.80;99.90
39875;DHT22;25547;52.530;13.194;2022-12-18T09:48:38;-4.80;99.90
39875;DHT22;25547;52.530;13.194;2022-12-18T09:51:23;-4.80;99.90
39875;DHT22;25547;52.530;13.194;2022-12-18T09:53:55;-4.70;99.90
39875;DHT22;25547;52.530;13.194;2022-12-18T09:56:28;-4.80;99.90
39875;DHT22;25547;52.530;13.194;2022-12-18T09:59:01;-4.70;99.90
39875;DHT22;25547;52.530;13.194;2022-12-18T10:01:31;-4.80;99.90
39875;DHT22;25547;52.530;13.194;2022-12-18T10:03:57;-4.80;99.90
39875;DHT22;25547;52.530;13.194;2022-12-18T10:14:41;-4.70;99.90
39875;DHT22;25547;52.530;13.194;2022-12-18T10:19:44;-4.70;99.90
39875;DHT22;25547;52.530;13.194;2022-12-18T10:27:43;-4.80;99.90
39875;DHT22;25547;52.530;13.194;2022-12-18T10:30:17;-4.60;99.90
39875;DHT22;25547;52.530;13.194;2022-12-18T10:32:43;-4.50;99.90
39875;DHT22;25547;52.530;13.194;2022-12-18T10:35:26;-4.60;99.90
39875;DHT22;25547;52.530;13.194;2022-12-18T10:43:24;-4.70;99.90
39875;DHT22;25547;52.530;13.194;2022-12-18T10:48:47;-4.50;99.90
39875;DHT22;25547;52.530;13.194;2022-12-18T10:51:31;-4.30;99.90
39875;DHT22;25547;52.530;13.194;2022-12-18T10:54:06;-4.50;99.90
39875;DHT22;25547;52.530;13.194;2022-12-18T10:56:39;-4.30;99.90
39875;DHT22;25547;52.530;13.194;2022-12-18T10:59:07;-4.10;99.90
39875;DHT22;25547;52.530;13.194;2022-12-18T11:01:53;-4.00;99.90
39875;DHT22;25547;52.530;13.194;2022-12-18T11:04:21;-4.10;99.90
39875;DHT22;25547;52.530;13.194;2022-12-18T11:07:05;-4.00;99.90
39875;DHT22;25547;52.530;13.194;2022-12-18T11:09:36;-3.80;99.90
39875;DHT22;25547;52.530;13.194;2022-12-18T11:12:17;-3.70;99.90
39875;DHT22;25547;52.530;13.194;2022-12-18T11:14:52;-3.60;99.90
39875;DHT22;25547;52.530;13.194;2022-12-18T11:17:29;-3.70;99.90
39875;DHT22;25547;52.530;13.194;2022-12-18T11:20:03;-3.70;99.90
39875;DHT22;25547;52.530;13.194;2022-12-18T11:22:31;-3.70;99.90
39875;DHT22;25547;52.530;13.194;2022-12-18T11:25:04;-3.70;99.90
39875;DHT22;25547;52.530;13.194;2022-12-18T11:27:33;-3.60;99.90
39875;DHT22;25547;52.530;13.194;2022-12-18T11:35:44;-3.60;99.90
39875;DHT22;25547;52.530;13.194;2022-12-18T11:38:23;-3.70;99.90
39875;DHT22;25547;52.530;13.194;2022-12-18T11:41:15;-3.70;99.90
39875;DHT22;25547;52.530;13.194;2022-12-18T11:43:55;-3.60;99.90
39875;DHT22;25547;52.530;13.194;2022-12-18T11:46:33;-3.50;99.90
39875;DHT22;25547;52.530;13.194;2022-12-18T11:49:20;-3.40;99.90
39875;DHT22;25547;52.530;13.194;2022-12-18T11:51:53;-3.30;99.90
39875;DHT22;25547;52.530;13.194;2022-12-18T11:54:21;-3.30;99.90
39875;DHT22;25547;52.530;13.194;2022-12-18T11:56:51;-3.10;99.90
39875;DHT22;25547;52.530;13.194;2022-12-18T12:08:06;-3.20;99.90
39875;DHT22;25547;52.530;13.194;2022-12-18T12:16:06;-3.30;99.90
39875;DHT22;25547;52.530;13.194;2022-12-18T12:28:58;-3.30;99.90
39875;DHT22;25547;52.530;13.194;2022-12-18T12:32:05;-3.20;99.90
39875;DHT22;25547;52.530;13.194;2022-12-18T12:39:53;-3.10;99.90
39875;DHT22;25547;52.530;13.194;2022-12-18T12:45:17;-3.10;99.90
39875;DHT22;25547;52.530;13.194;2022-12-18T12:47:46;-3.10;99.90
39875;DHT22;25547;52.530;13.194;2022-12-18T12:50:17;-3.20;99.90
39875;DHT22;25547;52.530;13.194;2022-12-18T12:52:50;-3.20;99.90
39875;DHT22;25547;52.530;13.194;2022-12-18T12:55:28;-3.20;99.90
39875;DHT22;25547;52.530;13.194;2022-12-18T12:58:16;-3.30;99.90
39875;DHT22;25547;52.530;13.194;2022-12-18T13:04:17;-3.20;99.90
39875;DHT22;25547;52.530;13.194;2022-12-18T13:06:55;-3.20;99.90
39875;DHT22;25547;52.530;13.194;2022-12-18T13:09:24;-3.20;99.90
39875;DHT22;25547;52.530;13.194;2022-12-18T13:11:50;-3.20;99.90
39875;DHT22;25547;52.530;13.194;2022-12-18T13:14:39;-3.20;99.90
39875;DHT22;25547;52.530;13.194;2022-12-18T13:19:51;-3.20;99.90
39875;DHT22;25547;52.530;13.194;2022-12-18T13:22:24;-3.20;99.90
39875;DHT22;25547;52.530;13.194;2022-12-18T13:24:56;-3.20;99.90
39875;DHT22;25547;52.530;13.194;2022-12-18T13:41:03;-3.30;99.90
39875;DHT22;25547;52.530;13.194;2022-12-18T13:43:31;-3.30;99.90
39875;DHT22;25547;52.530;13.194;2022-12-18T13:48:29;-3.30;99.90
39875;DHT22;25547;52.530;13.194;2022-12-18T13:51:07;-3.40;99.90
39875;DHT22;25547;52.530;13.194;2022-12-18T13:53:42;-3.40;99.90
39875;DHT22;25547;52.530;13.194;2022-12-18T13:56:08;-3.50;99.90
39875;DHT22;25547;52.530;13.194;2022-12-18T13:58:34;-3.50;99.90
39875;DHT22;25547;52.530;13.194;2022-12-18T14:01:00;-3.50;99.90
39875;DHT22;25547;52.530;13.194;2022-12-18T14:03:29;-3.50;99.90
39875;DHT22;25547;52.530;13.194;2022-12-18T14:06:07;-3.30;99.90
39875;DHT22;25547;52.530;13.194;2022-12-18T14:08:38;-3.40;99.90
39875;DHT22;25547;52.530;13.194;2022-12-18T14:11:04;-3.40;99.90
39875;DHT22;25547;52.530;13.194;2022-12-18T14:13:41;-3.30;99.90
39875;DHT22;25547;52.530;13.194;2022-12-18T14:16:11;-3.30;99.90
39875;DHT22;25547;52.530;13.194;2022-12-18T14:18:42;-3.30;99.90
39875;DHT22;25547;52.530;13.194;2022-12-18T14:21:38;-3.40;99.90
39875;DHT22;25547;52.530;13.194;2022-12-18T14:26:34;-3.50;99.90
39875;DHT22;25547;52.530;13.194;2022-12-18T14:29:18;-3.50;99.90
39875;DHT22;25547;52.530;13.194;2022-12-18T14:31:46;-3.40;99.90
39875;DHT22;25547;52.530;13.194;2022-12-18T14:34:33;-3.40;99.90
39875;DHT22;25547;52.530;13.194;2022-12-18T14:37:01;-3.30;99.90
39875;DHT22;25547;52.530;13.194;2022-12-18T14:39:27;-3.40;99.90
39875;DHT22;25547;52.530;13.194;2022-12-18T14:41:53;-3.30;99.90
39875;DHT22;25547;52.530;13.194;2022-12-18T14:44:19;-3.30;99.90
39875;DHT22;25547;52.530;13.194;2022-12-18T14:46:48;-3.30;99.90
39875;DHT22;25547;52.530;13.194;2022-12-18T14:51:59;-3.30;99.90
39875;DHT22;25547;52.530;13.194;2022-12-18T14:54:26;-3.30;99.90
39875;DHT22;25547;52.530;13.194;2022-12-18T14:57:05;-3.30;99.90
39875;DHT22;25547;52.530;13.194;2022-12-18T14:59:34;-3.30;99.90
39875;DHT22;25547;52.530;13.194;2022-12-18T15:02:04;-3.20;99.90
39875;DHT22;25547;52.530;13.194;2022-12-18T15:04:38;-3.20;99.90
39875;DHT22;25547;52.530;13.194;2022-12-18T15:10:00;-3.30;99.90
39875;DHT22;25547;52.530;13.194;2022-12-18T15:12:37;-3.30;99.90
39875;DHT22;25547;52.530;13.194;2022-12-18T15:15:04;-3.30;99.90
39875;DHT22;25547;52.530;13.194;2022-12-18T15:17:31;-3.30;99.90
39875;DHT22;25547;52.530;13.194;2022-12-18T15:20:11;-3.40;99.90
39875;DHT22;25547;52.530;13.194;2022-12-18T15:22:39;-3.60;99.90
39875;DHT22;25547;52.530;13.194;2022-12-18T15:25:32;-3.40;99.90
39875;DHT22;25547;52.530;13.194;2022-12-18T15:28:02;-3.40;99.90
39875;DHT22;25547;52.530;13.194;2022-12-18T15:30:28;-3.40;99.90
39875;DHT22;25547;52.530;13.194;2022-12-18T15:33:22;-3.40;99.90
39875;DHT22;25547;52.530;13.194;2022-12-18T15:35:59;-3.40;99.90
39875;DHT22;25547;52.530;13.194;2022-12-18T15:38:26;-3.40;99.90
39875;DHT22;25547;52.530;13.194;2022-12-18T15:40:54;-3.40;99.90
39875;DHT22;25547;52.530;13.194;2022-12-18T15:43:22;-3.30;99.90
39875;DHT22;25547;52.530;13.194;2022-12-18T15:46:11;-3.40;99.90
39875;DHT22;25547;52.530;13.194;2022-12-18T15:48:48;-3.50;99.90
39875;DHT22;25547;52.530;13.194;2022-12-18T15:51:32;-3.40;99.90
39875;DHT22;25547;52.530;13.194;2022-12-18T15:54:00;-3.40;99.90
39875;DHT22;25547;52.530;13.194;2022-12-18T15:56:26;-3.50;99.90
39875;DHT22;25547;52.530;13.194;2022-12-18T15:59:13;-3.70;99.90
39875;DHT22;25547;52.530;13.194;2022-12-18T16:01:39;-3.90;99.90
39875;DHT22;25547;52.530;13.194;2022-12-18T16:04:11;-3.90;99.90
39875;DHT22;25547;52.530;13.194;2022-12-18T16:06:37;-3.90;99.90
39875;DHT22;25547;52.530;13.194;2022-12-18T16:09:03;-3.90;99.90
39875;DHT22;25547;52.530;13.194;2022-12-18T16:11:30;-3.90;99.90
39875;DHT22;25547;52.530;13.194;2022-12-18T16:16:46;-3.80;99.90
39875;DHT22;25547;52.530;13.194;2022-12-18T16:19:14;-3.80;99.90
39875;DHT22;25547;52.530;13.194;2022-12-18T16:21:41;-3.60;99.90
39875;DHT22;25547;52.530;13.194;2022-12-18T16:26:39;-3.60;99.90
39875;DHT22;25547;52.530;13.194;2022-12-18T16:29:07;-3.50;99.90
39875;DHT22;25547;52.530;13.194;2022-12-18T16:31:35;-3.60;99.90
39875;DHT22;25547;52.530;13.194;2022-12-18T16:36:51;-3.70;99.90
39875;DHT22;25547;52.530;13.194;2022-12-18T16:39:19;-3.60;99.90
39875;DHT22;25547;52.530;13.194;2022-12-18T16:41:45;-3.70;99.90
39875;DHT22;25547;52.530;13.194;2022-12-18T16:44:11;-3.70;99.90
39875;DHT22;25547;52.530;13.194;2022-12-18T16:46:37;-3.70;99.90
39875;DHT22;25547;52.530;13.194;2022-12-18T16:49:04;-3.70;99.90
39875;DHT22;25547;52.530;13.194;2022-12-18T16:51:38;-3.60;99.90
39875;DHT22;25547;52.530;13.194;2022-12-18T16:54:04;-3.70;99.90
39875;DHT22;25547;52.530;13.194;2022-12-18T16:56:31;-3.70;99.90
39875;DHT22;25547;52.530;13.194;2022-12-18T16:58:58;-3.60;99.90
39875;DHT22;25547;52.530;13.194;2022-12-18T17:01:26;-3.60;99.90
39875;DHT22;25547;52.530;13.194;2022-12-18T17:03:57;-3.60;99.90
39875;DHT22;25547;52.530;13.194;2022-12-18T17:06:24;-3.60;99.90
39875;DHT22;25547;52.530;13.194;2022-12-18T17:08:58;-3.50;99.90
39875;DHT22;25547;52.530;13.194;2022-12-18T17:11:29;-3.60;99.90
39875;DHT22;25547;52.530;13.194;2022-12-18T17:14:04;-3.50;99.90
39875;DHT22;25547;52.530;13.194;2022-12-18T17:16:30;-3.50;99.90
39875;DHT22;25547;52.530;13.194;2022-12-18T17:18:57;-3.60;99.90
39875;DHT22;25547;52.530;13.194;2022-12-18T17:21:23;-3.60;99.90
39875;DHT22;25547;52.530;13.194;2022-12-18T17:23:49;-3.70;99.90
39875;DHT22;25547;52.530;13.194;2022-12-18T17:26:15;-3.70;99.90
39875;DHT22;25547;52.530;13.194;2022-12-18T17:28:43;-3.70;99.90
39875;DHT22;25547;52.530;13.194;2022-12-18T17:31:16;-3.70;99.90
39875;DHT22;25547;52.530;13.194;2022-12-18T17:33:42;-3.60;99.90
39875;DHT22;25547;52.530;13.194;2022-12-18T17:36:14;-3.70;99.90
39875;DHT22;25547;52.530;13.194;2022-12-18T17:38:48;-3.70;99.90
39875;DHT22;25547;52.530;13.194;2022-12-18T17:41:14;-3.70;99.90
39875;DHT22;25547;52.530;13.194;2022-12-18T17:43:40;-3.70;99.90
39875;DHT22;25547;52.530;13.194;2022-12-18T17:46:11;-3.70;99.90
39875;DHT22;25547;52.530;13.194;2022-12-18T17:48:40;-3.70;99.90